Time,TemperatureF,DewpointF,PressureIn,WindDirection,WindDirectionDegrees,WindSpeedMPH,WindSpeedGustMPH,Humidity,HourlyPrecipIn,Conditions,Clouds,dailyrainin,SoftwareType,DateUTC
2013-02-11 00:00:00,19.1,6.0,30.38,SW,217,2.0,3.0,56,0.00,,,0.17,WeatherCatV1.02B3,2013-02-11 05:00:00,
2013-02-11 00:05:00,19.6,6.1,30.38,SW,217,1.0,3.0,55,0.00,,,0.00,WeatherCatV1.02B3,2013-02-11 05:05:00,
2013-02-11 00:10:00,19.7,6.2,30.38,SW,217,0.0,1.0,55,0.00,,,0.00,WeatherCatV1.02B3,2013-02-11 05:10:00,
2013-02-11 00:15:00,19.9,6.4,30.38,SW,217,1.0,1.0,55,0.00,,,0.00,WeatherCatV1.02B3,2013-02-11 05:15:00,
2013-02-11 00:20:00,20.4,6.4,30.38,SW,217,1.0,1.0,54,0.00,,,0.00,WeatherCatV1.02B3,2013-02-11 05:20:00,
2013-02-11 00:25:00,20.8,6.0,30.37,SW,217,0.0,0.0,52,0.00,,,0.00,WeatherCatV1.02B3,2013-02-11 05:25:00,
2013-02-11 00:30:00,20.9,6.5,30.37,SW,217,0.0,0.0,53,0.00,,,0.00,WeatherCatV1.02B3,2013-02-11 05:30:00,
2013-02-11 00:35:00,20.9,6.5,30.37,SW,217,0.0,0.0,53,0.00,,,0.00,WeatherCatV1.02B3,2013-02-11 05:35:00,
2013-02-11 00:40:00,20.8,6.4,30.36,SW,217,0.0,0.0,53,0.00,,,0.00,WeatherCatV1.02B3,2013-02-11 05:40:00,
2013-02-11 00:45:00,20.9,6.9,30.36,SW,217,0.0,0.0,54,0.00,,,0.00,WeatherCatV1.02B3,2013-02-11 05:45:00,
2013-02-11 00:50:00,20.9,8.1,30.36,SW,217,0.0,0.0,57,0.00,,,0.00,WeatherCatV1.02B3,2013-02-11 05:50:00,
2013-02-11 00:55:00,20.9,8.5,30.36,SW,217,2.0,2.0,58,0.00,,,0.00,WeatherCatV1.02B3,2013-02-11 05:55:00,
2013-02-11 01:00:00,20.6,8.9,30.36,SW,217,0.0,0.0,60,0.00,,,0.00,WeatherCatV1.02B3,2013-02-11 06:00:00,
2013-02-11 01:05:00,20.4,8.8,30.36,SW,217,0.0,0.0,60,0.00,,,0.00,WeatherCatV1.02B3,2013-02-11 06:05:00,
2013-02-11 01:08:00,20.2,8.6,30.36,SW,217,0.0,0.0,60,0.00,,,0.00,WeatherCatV1.02B3,2013-02-11 06:08:00,
2013-02-11 01:13:00,20.0,8.7,30.35,SW,217,0.0,0.0,61,0.00,,,0.00,WeatherCatV1.02B3,2013-02-11 06:13:00,
2013-02-11 01:18:00,19.9,8.6,30.35,SW,217,0.0,0.0,61,0.00,,,0.00,WeatherCatV1.02B3,2013-02-11 06:18:00,
2013-02-11 01:22:00,19.9,8.6,30.35,SW,217,0.0,0.0,61,0.00,,,0.00,WeatherCatV1.02B3,2013-02-11 06:22:00,
2013-02-11 01:26:00,19.8,8.6,30.35,SW,217,0.0,0.0,61,0.00,,,0.00,WeatherCatV1.02B3,2013-02-11 06:26:00,
2013-02-11 01:31:00,19.8,9.3,30.35,SW,217,0.0,0.0,63,0.00,,,0.00,WeatherCatV1.02B3,2013-02-11 06:31:00,
2013-02-11 01:36:00,19.7,9.2,30.34,SW,217,0.0,0.0,63,0.00,,,0.00,WeatherCatV1.02B3,2013-02-11 06:36:00,
2013-02-11 01:41:00,19.6,9.1,30.34,SW,217,0.0,0.0,63,0.00,,,0.00,WeatherCatV1.02B3,2013-02-11 06:41:00,
2013-02-11 01:46:00,19.5,9.0,30.34,SW,217,0.0,0.0,63,0.00,,,0.00,WeatherCatV1.02B3,2013-02-11 06:46:00,
2013-02-11 01:51:00,19.6,9.1,30.34,SW,217,0.0,0.0,63,0.00,,,0.00,WeatherCatV1.02B3,2013-02-11 06:51:00,
2013-02-11 01:56:00,19.5,9.3,30.33,SW,217,0.0,0.0,64,0.00,,,0.00,WeatherCatV1.02B3,2013-02-11 06:56:00,
2013-02-11 02:01:00,19.4,9.2,30.33,SW,217,0.0,0.0,64,0.00,,,0.00,WeatherCatV1.02B3,2013-02-11 07:01:00,
2013-02-11 02:06:00,19.4,9.2,30.33,SW,217,0.0,0.0,64,0.00,,,0.00,WeatherCatV1.02B3,2013-02-11 07:06:00,
2013-02-11 02:11:00,19.3,9.5,30.33,SW,217,0.0,0.0,65,0.00,,,0.00,WeatherCatV1.02B3,2013-02-11 07:11:00,
2013-02-11 02:16:00,19.3,9.5,30.33,SW,217,0.0,0.0,65,0.00,,,0.00,WeatherCatV1.02B3,2013-02-11 07:16:00,
2013-02-11 02:21:00,19.4,9.9,30.33,SW,217,0.0,0.0,66,0.00,,,0.00,WeatherCatV1.02B3,2013-02-11 07:21:00,
2013-02-11 02:26:00,19.4,9.9,30.32,SW,217,0.0,0.0,66,0.00,,,0.00,WeatherCatV1.02B3,2013-02-11 07:26:00,
2013-02-11 02:31:00,19.6,9.4,30.32,SW,217,0.0,2.0,64,0.00,,,0.00,WeatherCatV1.02B3,2013-02-11 07:31:00,
2013-02-11 02:36:00,20.0,9.1,30.32,SSW,201,0.0,4.0,62,0.00,,,0.00,WeatherCatV1.02B3,2013-02-11 07:36:00,
2013-02-11 02:41:00,20.9,9.2,30.32,SSW,213,1.0,4.0,60,0.00,,,0.00,WeatherCatV1.02B3,2013-02-11 07:41:00,
2013-02-11 02:46:00,21.5,9.4,30.32,SSW,213,0.0,0.0,59,0.00,,,0.00,WeatherCatV1.02B3,2013-02-11 07:46:00,
2013-02-11 02:51:00,22.1,9.2,30.32,SW,217,0.0,4.0,57,0.00,,,0.00,WeatherCatV1.02B3,2013-02-11 07:51:00,
2013-02-11 02:56:00,22.8,9.5,30.32,SW,217,0.0,3.0,56,0.00,,,0.00,WeatherCatV1.02B3,2013-02-11 07:56:00,
2013-02-11 03:01:00,23.2,9.5,30.31,SW,217,0.0,0.0,55,0.00,,,0.00,WeatherCatV1.02B3,2013-02-11 08:01:00,
2013-02-11 03:06:00,23.4,9.6,30.31,SW,217,0.0,0.0,55,0.00,,,0.00,WeatherCatV1.02B3,2013-02-11 08:06:00,
2013-02-11 03:11:00,23.6,11.0,30.31,SW,217,1.0,3.0,58,0.00,,,0.00,WeatherCatV1.02B3,2013-02-11 08:11:00,
2013-02-11 03:16:00,23.8,10.8,30.31,SW,217,0.0,4.0,57,0.00,,,0.00,WeatherCatV1.02B3,2013-02-11 08:16:00,
2013-02-11 03:21:00,24.1,10.3,30.30,SW,217,1.0,3.0,55,0.00,,,0.00,WeatherCatV1.02B3,2013-02-11 08:21:00,
2013-02-11 03:26:00,24.5,10.3,30.30,SSW,211,0.0,0.0,54,0.00,,,0.00,WeatherCatV1.02B3,2013-02-11 08:26:00,
2013-02-11 03:31:00,24.7,10.9,30.30,SSW,204,0.0,0.0,55,0.00,,,0.00,WeatherCatV1.02B3,2013-02-11 08:31:00,
2013-02-11 03:36:00,25.0,10.7,30.30,SSE,163,0.0,4.0,54,0.00,,,0.00,WeatherCatV1.02B3,2013-02-11 08:36:00,
2013-02-11 03:41:00,25.2,11.3,30.30,SW,216,2.0,3.0,55,0.00,,,0.00,WeatherCatV1.02B3,2013-02-11 08:41:00,
2013-02-11 03:46:00,25.3,11.0,30.29,SE,142,0.0,4.0,54,0.00,,,0.00,WeatherCatV1.02B3,2013-02-11 08:46:00,
2013-02-11 03:51:00,25.4,10.7,30.30,SE,144,0.0,2.0,53,0.00,,,0.00,WeatherCatV1.02B3,2013-02-11 08:51:00,
2013-02-11 03:56:00,25.4,11.5,30.29,SSW,194,0.0,4.0,55,0.00,,,0.00,WeatherCatV1.02B3,2013-02-11 08:56:00,
2013-02-11 04:01:00,25.3,11.8,30.29,SSW,194,1.0,1.0,56,0.00,,,0.00,WeatherCatV1.02B3,2013-02-11 09:01:00,
2013-02-11 04:06:00,25.0,12.3,30.29,SSW,194,1.0,1.0,58,0.00,,,0.00,WeatherCatV1.02B3,2013-02-11 09:06:00,
2013-02-11 04:11:00,24.8,12.1,30.29,SSW,193,0.0,0.0,58,0.00,,,0.00,WeatherCatV1.02B3,2013-02-11 09:11:00,
2013-02-11 04:16:00,24.7,12.4,30.29,SSW,193,0.0,0.0,59,0.00,,,0.00,WeatherCatV1.02B3,2013-02-11 09:16:00,
2013-02-11 04:21:00,24.5,12.2,30.28,SSW,193,0.0,2.0,59,0.00,,,0.00,WeatherCatV1.02B3,2013-02-11 09:21:00,
2013-02-11 04:26:00,24.4,12.5,30.28,SSW,193,0.0,2.0,60,0.00,,,0.00,WeatherCatV1.02B3,2013-02-11 09:26:00,
2013-02-11 04:31:00,24.3,12.1,30.28,SSW,193,0.0,0.0,59,0.00,,,0.00,WeatherCatV1.02B3,2013-02-11 09:31:00,
2013-02-11 04:36:00,24.2,12.3,30.28,SSW,193,0.0,0.0,60,0.00,,,0.00,WeatherCatV1.02B3,2013-02-11 09:36:00,
2013-02-11 04:41:00,24.1,12.3,30.27,SSW,193,0.0,0.0,60,0.00,,,0.00,WeatherCatV1.02B3,2013-02-11 09:41:00,
2013-02-11 04:46:00,24.0,12.5,30.27,SSW,193,0.0,0.0,61,0.00,,,0.00,WeatherCatV1.02B3,2013-02-11 09:46:00,
2013-02-11 04:51:00,23.9,12.4,30.27,SSW,193,0.0,0.0,61,0.00,,,0.00,WeatherCatV1.02B3,2013-02-11 09:51:00,
2013-02-11 04:56:00,23.8,12.3,30.27,SSW,193,0.0,0.0,61,0.00,,,0.00,WeatherCatV1.02B3,2013-02-11 09:56:00,
2013-02-11 05:01:00,23.9,12.4,30.27,SSW,202,0.0,2.0,61,0.00,,,0.00,WeatherCatV1.02B3,2013-02-11 10:01:00,
2013-02-11 05:06:00,24.0,12.5,30.27,SSW,202,0.0,0.0,61,0.00,,,0.00,WeatherCatV1.02B3,2013-02-11 10:06:00,
2013-02-11 05:11:00,24.1,12.3,30.27,SSW,202,0.0,3.0,60,0.00,,,0.00,WeatherCatV1.02B3,2013-02-11 10:11:00,
2013-02-11 05:16:00,24.2,12.3,30.27,SSW,202,0.0,0.0,60,0.00,,,0.00,WeatherCatV1.02B3,2013-02-11 10:16:00,
2013-02-11 05:21:00,24.4,12.5,30.27,SSW,202,0.0,3.0,60,0.00,,,0.00,WeatherCatV1.02B3,2013-02-11 10:21:00,
2013-02-11 05:26:00,24.5,12.6,30.27,SSW,202,0.0,0.0,60,0.00,,,0.00,WeatherCatV1.02B3,2013-02-11 10:26:00,
2013-02-11 05:31:00,24.6,13.1,30.27,SSW,202,0.0,4.0,61,0.00,,,0.00,WeatherCatV1.02B3,2013-02-11 10:31:00,
2013-02-11 05:36:00,24.8,13.3,30.27,SSW,202,1.0,5.0,61,0.00,,,0.00,WeatherCatV1.02B3,2013-02-11 10:36:00,
2013-02-11 05:41:00,24.9,14.1,30.27,SSW,201,0.0,3.0,63,0.00,,,0.00,WeatherCatV1.02B3,2013-02-11 10:41:00,
2013-02-11 05:46:00,25.2,14.8,30.27,SSW,202,0.0,2.0,64,0.00,,,0.00,WeatherCatV1.02B3,2013-02-11 10:46:00,
2013-02-11 05:51:00,25.4,15.3,30.26,SSW,202,0.0,0.0,65,0.00,,,0.00,WeatherCatV1.02B3,2013-02-11 10:51:00,
2013-02-11 05:56:00,25.5,15.4,30.25,SSW,201,0.0,0.0,65,0.00,,,0.00,WeatherCatV1.02B3,2013-02-11 10:56:00,
2013-02-11 06:01:00,25.7,15.9,30.25,SSW,197,0.0,0.0,66,0.00,,,0.00,WeatherCatV1.02B3,2013-02-11 11:01:00,
2013-02-11 06:07:00,25.8,15.3,30.25,SSW,197,0.0,0.0,64,0.00,,,0.00,WeatherCatV1.02B3,2013-02-11 11:07:00,
2013-02-11 06:12:00,25.9,16.1,30.25,SSW,197,0.0,0.0,66,0.00,,,0.00,WeatherCatV1.02B3,2013-02-11 11:12:00,
2013-02-11 06:17:00,25.9,16.1,30.25,SSW,197,0.0,2.0,66,0.00,,,0.00,WeatherCatV1.02B3,2013-02-11 11:17:00,
2013-02-11 06:22:00,26.0,16.9,30.25,SSW,197,1.0,5.0,68,0.00,,,0.00,WeatherCatV1.02B3,2013-02-11 11:22:00,
2013-02-11 06:28:00,26.5,19.0,30.25,SSW,209,2.0,5.0,73,0.00,,,0.00,WeatherCatV1.02B3,2013-02-11 11:28:00,
2013-02-11 06:33:00,26.8,19.3,30.25,SSW,200,3.0,4.0,73,0.00,,,0.00,WeatherCatV1.02B3,2013-02-11 11:33:00,
2013-02-11 06:38:00,27.1,19.9,30.25,SSW,205,0.0,0.0,74,0.00,,,0.00,WeatherCatV1.02B3,2013-02-11 11:38:00,
2013-02-11 06:50:00,27.6,20.4,30.25,SSW,198,0.0,0.0,74,0.00,,,0.00,WeatherCatV1.02B3,2013-02-11 11:50:00,
2013-02-11 06:55:00,27.7,20.5,30.25,SSW,198,0.0,1.0,74,0.00,,,0.00,WeatherCatV1.02B3,2013-02-11 11:55:00,
2013-02-11 07:00:00,27.8,20.6,30.24,SW,227,4.0,4.0,74,0.00,,,0.00,WeatherCatV1.02B3,2013-02-11 12:00:00,
2013-02-11 07:05:00,27.9,21.0,30.24,SW,229,0.0,0.0,75,0.00,,,0.00,WeatherCatV1.02B3,2013-02-11 12:05:00,
2013-02-11 07:10:00,28.0,21.4,30.23,SSW,213,3.0,4.0,76,0.00,,,0.00,WeatherCatV1.02B3,2013-02-11 12:10:00,
2013-02-11 07:15:00,28.2,21.6,30.23,SSW,199,0.0,3.0,76,0.00,,,0.00,WeatherCatV1.02B3,2013-02-11 12:15:00,
2013-02-11 07:20:00,28.4,22.1,30.23,SSW,199,0.0,0.0,77,0.00,,,0.00,WeatherCatV1.02B3,2013-02-11 12:20:00,
2013-02-11 07:25:00,28.5,21.9,30.22,SSW,202,0.0,6.0,76,0.00,,,0.00,WeatherCatV1.02B3,2013-02-11 12:25:00,
2013-02-11 07:31:00,28.5,21.6,30.22,SSW,202,0.0,1.0,75,0.00,,,0.00,WeatherCatV1.02B3,2013-02-11 12:31:00,
2013-02-11 07:36:00,28.5,21.3,30.22,SSW,202,0.0,1.0,74,0.00,,,0.00,WeatherCatV1.02B3,2013-02-11 12:36:00,
2013-02-11 07:41:00,28.5,21.3,30.22,SSW,202,0.0,0.0,74,0.00,,,0.00,WeatherCatV1.02B3,2013-02-11 12:41:00,
2013-02-11 07:46:00,28.5,21.3,30.22,SSW,202,0.0,1.0,74,0.00,,,0.00,WeatherCatV1.02B3,2013-02-11 12:46:00,
2013-02-11 07:51:00,28.6,21.7,30.21,SSW,202,1.0,1.0,75,0.00,,,0.00,WeatherCatV1.02B3,2013-02-11 12:51:00,
2013-02-11 07:59:00,28.7,22.1,30.20,South,177,0.0,0.0,76,0.00,,,0.00,WeatherCatV1.02B3,2013-02-11 12:59:00,
2013-02-11 08:04:00,28.8,22.2,30.20,SSE,151,4.0,4.0,76,0.00,,,0.00,WeatherCatV1.02B3,2013-02-11 13:04:00,
2013-02-11 08:09:00,28.9,22.6,30.20,SSE,151,0.0,2.0,77,0.00,,,0.00,WeatherCatV1.02B3,2013-02-11 13:09:00,
2013-02-11 08:14:00,28.9,22.9,30.19,ESE,119,1.0,1.0,78,0.00,,,0.00,WeatherCatV1.02B3,2013-02-11 13:14:00,
2013-02-11 08:19:00,29.0,23.0,30.18,ESE,119,0.0,1.0,78,0.00,,,0.00,WeatherCatV1.02B3,2013-02-11 13:19:00,
2013-02-11 08:24:00,29.0,23.0,30.18,ESE,119,0.0,2.0,78,0.00,,,0.00,WeatherCatV1.02B3,2013-02-11 13:24:00,
2013-02-11 08:29:00,28.9,22.9,30.18,ESE,109,0.0,4.0,78,0.00,,,0.00,WeatherCatV1.02B3,2013-02-11 13:29:00,
2013-02-11 08:34:00,28.7,23.0,30.17,ESE,114,1.0,1.0,79,0.00,,,0.00,WeatherCatV1.02B3,2013-02-11 13:34:00,
2013-02-11 08:41:00,28.5,23.4,30.17,East,90,0.0,0.0,81,0.00,,,0.00,WeatherCatV1.02B3,2013-02-11 13:41:00,
2013-02-11 08:46:00,28.5,23.7,30.16,East,90,2.0,2.0,82,0.00,,,0.00,WeatherCatV1.02B3,2013-02-11 13:46:00,
2013-02-11 08:53:00,28.4,24.2,30.16,East,90,1.0,1.0,84,0.00,,,0.00,WeatherCatV1.02B3,2013-02-11 13:53:00,
2013-02-11 08:58:00,28.5,24.6,30.15,East,90,0.0,1.0,85,0.00,,,0.00,WeatherCatV1.02B3,2013-02-11 13:58:00,
2013-02-11 09:03:00,28.5,24.9,30.15,East,90,0.0,2.0,86,0.00,,,0.00,WeatherCatV1.02B3,2013-02-11 14:03:00,
2013-02-11 09:08:00,28.6,25.2,30.14,East,90,2.0,2.0,87,0.00,,,0.00,WeatherCatV1.02B3,2013-02-11 14:08:00,
2013-02-11 09:13:00,28.7,25.3,30.14,SE,126,0.0,2.0,87,0.00,,,0.00,WeatherCatV1.02B3,2013-02-11 14:13:00,
2013-02-11 09:18:00,28.9,25.8,30.13,SE,134,0.0,4.0,88,0.00,,,0.00,WeatherCatV1.02B3,2013-02-11 14:18:00,
2013-02-11 09:23:00,29.1,26.3,30.12,SE,128,0.0,2.0,89,0.00,,,0.00,WeatherCatV1.02B3,2013-02-11 14:23:00,
2013-02-11 09:28:00,29.5,26.9,30.12,SSE,150,0.0,7.0,90,0.00,,,0.00,WeatherCatV1.02B3,2013-02-11 14:28:00,
2013-02-11 09:33:00,29.9,27.3,30.11,SE,125,5.0,8.0,90,0.00,,,0.00,WeatherCatV1.02B3,2013-02-11 14:33:00,
2013-02-11 09:39:00,30.4,28.1,30.11,SSE,157,0.0,2.0,91,0.00,,,0.00,WeatherCatV1.02B3,2013-02-11 14:39:00,
2013-02-11 09:44:00,30.6,28.3,30.10,SE,143,0.0,5.0,91,0.00,,,0.00,WeatherCatV1.02B3,2013-02-11 14:44:00,
2013-02-11 09:49:00,30.8,28.5,30.10,South,172,2.0,5.0,91,0.00,,,0.00,WeatherCatV1.02B3,2013-02-11 14:49:00,
2013-02-11 09:54:00,31.0,28.7,30.10,South,189,2.0,3.0,91,0.00,,,0.00,WeatherCatV1.02B3,2013-02-11 14:54:00,
2013-02-11 09:59:00,31.2,28.9,30.09,SSE,154,1.0,5.0,91,0.00,,,0.00,WeatherCatV1.02B3,2013-02-11 14:59:00,
2013-02-11 10:04:00,31.4,29.4,30.09,SSW,207,1.0,4.0,92,0.00,,,0.00,WeatherCatV1.02B3,2013-02-11 15:04:00,
2013-02-11 10:09:00,31.5,29.4,30.09,SSE,150,2.0,6.0,92,0.00,,,0.00,WeatherCatV1.02B3,2013-02-11 15:09:00,
2013-02-11 10:15:00,31.6,29.5,30.08,SSE,161,2.0,4.0,92,0.00,,,0.00,WeatherCatV1.02B3,2013-02-11 15:15:00,
2013-02-11 10:21:00,31.7,29.6,30.07,SE,146,1.0,1.0,92,0.00,,,0.00,WeatherCatV1.02B3,2013-02-11 15:21:00,
2013-02-11 10:27:00,31.9,30.1,30.07,SE,133,0.0,0.0,93,0.00,,,0.00,WeatherCatV1.02B3,2013-02-11 15:27:00,
2013-02-11 10:33:00,32.1,30.3,30.08,SSW,209,3.0,3.0,93,0.00,,,0.00,WeatherCatV1.02B3,2013-02-11 15:33:00,
2013-02-11 10:38:00,32.3,30.5,30.07,SSW,209,3.0,3.0,93,0.00,,,0.00,WeatherCatV1.02B3,2013-02-11 15:38:00,
2013-02-11 10:44:00,32.5,30.7,30.06,SE,140,2.0,2.0,93,0.00,,,0.00,WeatherCatV1.02B3,2013-02-11 15:44:00,
2013-02-11 10:49:00,32.6,30.8,30.05,SSE,153,1.0,5.0,93,0.00,,,0.00,WeatherCatV1.02B3,2013-02-11 15:49:00,
2013-02-11 10:54:00,32.7,31.2,30.05,SE,141,4.0,5.0,94,0.00,,,0.00,WeatherCatV1.02B3,2013-02-11 15:54:00,
2013-02-11 11:02:00,33.0,31.5,30.03,SSE,160,0.0,0.0,94,0.00,,,0.00,WeatherCatV1.02B3,2013-02-11 16:02:00,
2013-02-11 11:10:00,33.3,31.8,30.03,SSW,196,1.0,1.0,94,0.00,,,0.00,WeatherCatV1.02B3,2013-02-11 16:10:00,
2013-02-11 11:25:00,33.9,32.4,30.01,SSE,158,0.0,0.0,94,0.00,,,0.00,WeatherCatV1.02B3,2013-02-11 16:25:00,
2013-02-11 11:30:00,34.1,32.6,30.00,SSE,159,0.0,0.0,94,0.00,,,0.00,WeatherCatV1.02B3,2013-02-11 16:30:00,
2013-02-11 11:35:00,34.3,32.8,30.00,SW,236,0.0,5.0,94,0.00,,,0.00,WeatherCatV1.02B3,2013-02-11 16:35:00,
2013-02-11 11:46:00,34.6,33.1,29.98,SE,138,1.0,1.0,94,0.00,,,0.00,WeatherCatV1.02B3,2013-02-11 16:46:00,
2013-02-11 11:51:00,34.8,33.3,29.98,SW,220,0.0,0.0,94,0.00,,,0.00,WeatherCatV1.02B3,2013-02-11 16:51:00,
2013-02-11 11:56:00,35.0,33.5,29.97,SW,216,1.0,5.0,94,0.00,,,0.00,WeatherCatV1.02B3,2013-02-11 16:56:00,
2013-02-11 12:01:00,35.2,33.6,29.96,SW,223,1.0,4.0,94,0.00,,,0.00,WeatherCatV1.02B3,2013-02-11 17:01:00,
2013-02-11 12:06:00,35.3,33.7,29.96,SW,225,2.0,2.0,94,0.00,,,0.01,WeatherCatV1.02B3,2013-02-11 17:06:00,
2013-02-11 12:18:00,35.9,34.3,29.95,SSW,209,0.0,0.0,94,0.00,,,0.01,WeatherCatV1.02B3,2013-02-11 17:18:00,
2013-02-11 12:36:00,36.6,35.3,29.93,SW,219,0.0,0.0,95,0.00,,,0.01,WeatherCatV1.02B3,2013-02-11 17:36:00,
2013-02-11 12:58:00,37.4,36.1,29.90,SSW,194,0.0,0.0,95,0.00,,,0.01,WeatherCatV1.02B3,2013-02-11 17:58:00,
2013-02-11 13:03:00,37.6,36.3,29.90,SSW,196,0.0,0.0,95,0.00,,,0.01,WeatherCatV1.02B3,2013-02-11 18:03:00,
2013-02-11 13:08:00,37.5,36.2,29.90,SSW,196,0.0,0.0,95,0.00,,,0.01,WeatherCatV1.02B3,2013-02-11 18:08:00,
2013-02-11 13:16:00,37.9,36.6,29.88,SE,143,2.0,2.0,95,0.00,,,0.01,WeatherCatV1.02B3,2013-02-11 18:16:00,
2013-02-11 13:36:00,38.7,37.4,29.86,SSE,161,1.0,1.0,95,0.00,,,0.01,WeatherCatV1.02B3,2013-02-11 18:36:00,
2013-02-11 13:47:00,39.1,37.8,29.84,SE,144,4.0,4.0,95,0.00,,,0.01,WeatherCatV1.02B3,2013-02-11 18:47:00,
2013-02-11 14:03:00,40.0,38.7,29.84,SSW,198,2.0,2.0,95,0.00,,,0.02,WeatherCatV1.02B3,2013-02-11 19:03:00,
2013-02-11 14:10:00,40.6,39.3,29.83,South,190,0.0,5.0,95,0.09,,,0.03,WeatherCatV1.02B3,2013-02-11 19:10:00,
2013-02-11 14:15:00,40.9,39.6,29.82,South,184,2.0,6.0,95,0.09,,,0.03,WeatherCatV1.02B3,2013-02-11 19:15:00,
2013-02-11 14:22:00,41.3,40.0,29.82,SSW,199,3.0,4.0,95,0.05,,,0.03,WeatherCatV1.02B3,2013-02-11 19:22:00,
2013-02-11 14:32:00,41.6,40.3,29.82,SSW,196,5.0,5.0,95,0.00,,,0.04,WeatherCatV1.02B3,2013-02-11 19:32:00,
2013-02-11 14:39:00,41.8,40.5,29.82,South,181,3.0,3.0,95,0.07,,,0.05,WeatherCatV1.02B3,2013-02-11 19:39:00,
2013-02-11 14:45:00,41.9,40.6,29.81,South,190,2.0,2.0,95,0.06,,,0.05,WeatherCatV1.02B3,2013-02-11 19:45:00,
2013-02-11 14:51:00,42.0,40.7,29.81,SSW,202,2.0,3.0,95,0.04,,,0.06,WeatherCatV1.02B3,2013-02-11 19:51:00,
2013-02-11 14:56:00,42.1,40.8,29.81,SSW,207,1.0,5.0,95,0.10,,,0.07,WeatherCatV1.02B3,2013-02-11 19:56:00,
2013-02-11 15:01:00,42.3,41.0,29.81,South,176,0.0,2.0,95,0.09,,,0.07,WeatherCatV1.02B3,2013-02-11 20:01:00,
2013-02-11 15:06:00,42.5,41.2,29.81,SW,227,0.0,1.0,95,0.05,,,0.07,WeatherCatV1.02B3,2013-02-11 20:06:00,
2013-02-11 15:14:00,42.9,41.6,29.80,SSW,194,3.0,3.0,95,0.11,,,0.09,WeatherCatV1.02B3,2013-02-11 20:14:00,
2013-02-11 15:24:00,43.4,42.1,29.80,SSW,199,5.0,5.0,95,0.05,,,0.10,WeatherCatV1.02B3,2013-02-11 20:24:00,
2013-02-11 15:31:00,43.9,42.6,29.80,SSW,199,2.0,2.0,95,0.05,,,0.10,WeatherCatV1.02B3,2013-02-11 20:31:00,
2013-02-11 15:39:00,44.0,42.7,29.79,South,181,3.0,4.0,95,0.05,,,0.11,WeatherCatV1.02B3,2013-02-11 20:39:00,
2013-02-11 15:52:00,44.0,42.7,29.79,SSW,195,3.0,3.0,95,0.05,,,0.11,WeatherCatV1.02B3,2013-02-11 20:52:00,
2013-02-11 15:58:00,41.5,40.2,29.77,SE,145,0.0,0.0,95,0.05,,,0.13,WeatherCatV1.02B3,2013-02-11 20:58:00,
2013-02-11 16:09:00,42.7,41.4,29.76,SSW,192,0.0,0.0,95,0.04,,,0.14,WeatherCatV1.02B3,2013-02-11 21:09:00,
2013-02-11 16:33:00,43.6,42.3,29.75,SSW,194,0.0,0.0,95,0.00,,,0.15,WeatherCatV1.02B3,2013-02-11 21:33:00,
2013-02-11 16:45:00,43.4,42.1,29.74,South,190,3.0,3.0,95,0.00,,,0.15,WeatherCatV1.02B3,2013-02-11 21:45:00,
2013-02-11 16:50:00,43.4,42.1,29.74,South,191,1.0,2.0,95,0.00,,,0.00,WeatherCatV1.02B3,2013-02-11 21:50:00,
2013-02-11 16:55:00,13.9,-6.4,30.15,WNW,292,0.0,0.0,39,0.00,,,0.00,WeatherCatV1.02B3,2013-02-11 21:55:00,
2013-02-11 17:00:00,13.9,-6.4,30.15,WNW,292,0.0,0.0,39,0.00,,,0.00,WeatherCatV1.02B3,2013-02-11 22:00:00,
2013-02-11 17:05:00,13.9,-6.4,30.15,WNW,292,0.0,0.0,39,0.00,,,0.00,WeatherCatV1.02B3,2013-02-11 22:05:00,
2013-02-11 17:10:00,13.9,-6.4,30.15,WNW,292,0.0,0.0,39,0.00,,,0.00,WeatherCatV1.02B3,2013-02-11 22:10:00,
2013-02-11 17:15:00,13.9,-6.4,30.15,WNW,292,0.0,0.0,39,0.00,,,0.00,WeatherCatV1.02B3,2013-02-11 22:15:00,
2013-02-11 17:20:00,13.9,-6.4,30.15,WNW,292,0.0,0.0,39,0.00,,,0.00,WeatherCatV1.02B3,2013-02-11 22:20:00,
2013-02-11 17:25:00,13.9,-6.4,30.15,WNW,292,0.0,0.0,39,0.00,,,0.00,WeatherCatV1.02B3,2013-02-11 22:25:00,
2013-02-11 17:39:00,13.9,-6.4,30.15,WNW,292,0.0,0.0,39,0.00,,,0.00,WeatherCatV1.02B3,2013-02-11 22:39:00,
2013-02-11 17:46:00,43.3,42.0,29.72,WSW,239,0.0,0.0,95,0.00,,,0.17,WeatherCatV1.02B3,2013-02-11 22:46:00,
2013-02-11 17:53:00,43.3,42.0,29.72,SSW,196,0.0,0.0,95,0.00,,,0.17,WeatherCatV1.02B3,2013-02-11 22:53:00,
2013-02-11 17:59:00,43.3,42.0,29.72,WSW,243,0.0,0.0,95,0.00,,,0.17,WeatherCatV1.02B3,2013-02-11 22:59:00,
2013-02-11 18:05:00,43.5,42.4,29.72,SSW,212,0.0,0.0,96,0.00,,,0.17,WeatherCatV1.02B3,2013-02-11 23:05:00,
2013-02-11 18:10:00,43.6,42.5,29.72,SW,229,0.0,0.0,96,0.00,,,0.17,WeatherCatV1.02B3,2013-02-11 23:10:00,
2013-02-11 18:15:00,43.7,42.6,29.72,SW,229,0.0,0.0,96,0.00,,,0.17,WeatherCatV1.02B3,2013-02-11 23:15:00,
2013-02-11 18:21:00,43.7,42.6,29.71,SSW,204,0.0,0.0,96,0.00,,,0.17,WeatherCatV1.02B3,2013-02-11 23:21:00,
2013-02-11 18:26:00,43.7,42.6,29.71,SSW,206,0.0,0.0,96,0.00,,,0.17,WeatherCatV1.02B3,2013-02-11 23:26:00,
2013-02-11 18:31:00,43.7,42.4,29.71,WSW,252,0.0,0.0,95,0.00,,,0.18,WeatherCatV1.02B3,2013-02-11 23:31:00,
2013-02-11 18:42:00,43.8,42.5,29.71,SW,224,0.0,0.0,95,0.00,,,0.18,WeatherCatV1.02B3,2013-02-11 23:42:00,
2013-02-11 18:47:00,43.8,42.7,29.71,West,279,0.0,0.0,96,0.00,,,0.18,WeatherCatV1.02B3,2013-02-11 23:47:00,
2013-02-11 18:54:00,43.6,42.5,29.70,SSW,211,0.0,0.0,96,0.00,,,0.18,WeatherCatV1.02B3,2013-02-11 23:54:00,
2013-02-11 19:04:00,43.7,42.6,29.70,SSW,205,0.0,0.0,96,0.00,,,0.18,WeatherCatV1.02B3,2013-02-12 00:04:00,
2013-02-11 19:09:00,43.6,42.5,29.70,SW,217,0.0,0.0,96,0.00,,,0.18,WeatherCatV1.02B3,2013-02-12 00:09:00,
2013-02-11 19:14:00,43.5,42.4,29.70,South,188,0.0,0.0,96,0.00,,,0.18,WeatherCatV1.02B3,2013-02-12 00:14:00,
2013-02-11 19:20:00,43.5,42.4,29.69,SSW,211,0.0,0.0,96,0.00,,,0.18,WeatherCatV1.02B3,2013-02-12 00:20:00,
2013-02-11 19:29:00,43.5,42.4,29.69,South,187,0.0,0.0,96,0.00,,,0.19,WeatherCatV1.02B3,2013-02-12 00:29:00,
2013-02-11 19:34:00,43.4,42.1,29.69,SSW,206,0.0,0.0,95,0.00,,,0.19,WeatherCatV1.02B3,2013-02-12 00:34:00,
2013-02-11 19:58:00,43.3,42.0,29.67,WSW,238,0.0,0.0,95,0.00,,,0.19,WeatherCatV1.02B3,2013-02-12 00:58:00,
2013-02-11 20:04:00,43.4,42.1,29.67,SSW,200,0.0,0.0,95,0.00,,,0.19,WeatherCatV1.02B3,2013-02-12 01:04:00,
2013-02-11 20:10:00,43.3,42.0,29.66,SSW,196,0.0,0.0,95,0.00,,,0.19,WeatherCatV1.02B3,2013-02-12 01:10:00,
2013-02-11 20:15:00,43.1,41.8,29.66,SSW,213,0.0,0.0,95,0.00,,,0.19,WeatherCatV1.02B3,2013-02-12 01:15:00,
2013-02-11 20:20:00,43.2,41.9,29.66,SSW,198,0.0,0.0,95,0.00,,,0.19,WeatherCatV1.02B3,2013-02-12 01:20:00,
2013-02-11 20:25:00,43.3,42.0,29.66,SSW,202,0.0,0.0,95,0.00,,,0.19,WeatherCatV1.02B3,2013-02-12 01:25:00,
2013-02-11 20:33:00,43.5,42.4,29.65,SSW,207,0.0,0.0,96,0.00,,,0.19,WeatherCatV1.02B3,2013-02-12 01:33:00,
2013-02-11 20:38:00,43.6,42.5,29.65,SSW,201,0.0,0.0,96,0.00,,,0.19,WeatherCatV1.02B3,2013-02-12 01:38:00,
2013-02-11 20:43:00,43.6,42.5,29.65,SSW,194,0.0,0.0,96,0.00,,,0.19,WeatherCatV1.02B3,2013-02-12 01:43:00,
2013-02-11 20:48:00,43.4,42.1,29.65,SSW,198,0.0,0.0,95,0.00,,,0.19,WeatherCatV1.02B3,2013-02-12 01:48:00,
2013-02-11 20:53:00,43.3,42.0,29.65,SSW,207,0.0,0.0,95,0.00,,,0.19,WeatherCatV1.02B3,2013-02-12 01:53:00,
2013-02-11 20:58:00,43.3,42.0,29.65,SW,225,0.0,0.0,95,0.00,,,0.19,WeatherCatV1.02B3,2013-02-12 01:58:00,
2013-02-11 21:03:00,43.3,42.0,29.65,SSW,202,0.0,0.0,95,0.00,,,0.19,WeatherCatV1.02B3,2013-02-12 02:03:00,
2013-02-11 21:08:00,43.3,42.0,29.65,SW,218,0.0,0.0,95,0.00,,,0.19,WeatherCatV1.02B3,2013-02-12 02:08:00,
2013-02-11 21:13:00,43.2,41.9,29.65,South,171,0.0,0.0,95,0.00,,,0.19,WeatherCatV1.02B3,2013-02-12 02:13:00,
2013-02-11 21:18:00,43.1,41.8,29.64,SSW,207,0.0,0.0,95,0.00,,,0.19,WeatherCatV1.02B3,2013-02-12 02:18:00,
2013-02-11 21:23:00,43.2,41.9,29.64,SW,215,0.0,0.0,95,0.00,,,0.19,WeatherCatV1.02B3,2013-02-12 02:23:00,
2013-02-11 21:28:00,43.1,41.8,29.64,SW,227,0.0,0.0,95,0.00,,,0.19,WeatherCatV1.02B3,2013-02-12 02:28:00,
2013-02-11 21:33:00,43.1,41.8,29.64,South,187,0.0,0.0,95,0.00,,,0.19,WeatherCatV1.02B3,2013-02-12 02:33:00,
2013-02-11 21:38:00,43.1,41.8,29.64,WSW,242,0.0,0.0,95,0.00,,,0.19,WeatherCatV1.02B3,2013-02-12 02:38:00,
2013-02-11 21:43:00,43.0,41.7,29.64,SW,220,0.0,0.0,95,0.00,,,0.19,WeatherCatV1.02B3,2013-02-12 02:43:00,
2013-02-11 21:48:00,42.9,41.6,29.64,SSW,211,0.0,0.0,95,0.00,,,0.19,WeatherCatV1.02B3,2013-02-12 02:48:00,
2013-02-11 21:53:00,42.9,41.6,29.65,West,277,0.0,0.0,95,0.00,,,0.19,WeatherCatV1.02B3,2013-02-12 02:53:00,
2013-02-11 21:58:00,42.9,41.6,29.64,WSW,254,0.0,0.0,95,0.00,,,0.19,WeatherCatV1.02B3,2013-02-12 02:58:00,
2013-02-11 22:03:00,42.9,41.6,29.64,WSW,237,0.0,0.0,95,0.00,,,0.19,WeatherCatV1.02B3,2013-02-12 03:03:00,
2013-02-11 22:08:00,42.8,41.5,29.64,WSW,251,0.0,0.0,95,0.00,,,0.19,WeatherCatV1.02B3,2013-02-12 03:08:00,
2013-02-11 22:13:00,42.6,41.3,29.64,West,262,0.0,0.0,95,0.00,,,0.19,WeatherCatV1.02B3,2013-02-12 03:13:00,
2013-02-11 22:18:00,42.6,41.3,29.64,WSW,240,0.0,0.0,95,0.00,,,0.19,WeatherCatV1.02B3,2013-02-12 03:18:00,
2013-02-11 22:23:00,42.5,41.2,29.64,West,262,0.0,0.0,95,0.00,,,0.19,WeatherCatV1.02B3,2013-02-12 03:23:00,
2013-02-11 22:28:00,42.5,41.2,29.64,WSW,247,0.0,0.0,95,0.00,,,0.19,WeatherCatV1.02B3,2013-02-12 03:28:00,
2013-02-11 22:35:00,42.3,41.0,29.64,SW,215,0.0,0.0,95,0.00,,,0.19,WeatherCatV1.02B3,2013-02-12 03:35:00,
2013-02-11 22:40:00,42.2,40.9,29.63,WNW,282,0.0,0.0,95,0.00,,,0.19,WeatherCatV1.02B3,2013-02-12 03:40:00,
2013-02-11 22:45:00,42.1,40.8,29.63,WSW,256,0.0,0.0,95,0.00,,,0.19,WeatherCatV1.02B3,2013-02-12 03:45:00,
2013-02-11 22:50:00,41.9,40.6,29.63,WNW,284,0.0,0.0,95,0.00,,,0.19,WeatherCatV1.02B3,2013-02-12 03:50:00,
2013-02-11 22:55:00,41.8,40.5,29.63,WNW,286,0.0,0.0,95,0.00,,,0.19,WeatherCatV1.02B3,2013-02-12 03:55:00,
2013-02-11 23:00:00,41.7,40.4,29.63,West,264,0.0,0.0,95,0.00,,,0.19,WeatherCatV1.02B3,2013-02-12 04:00:00,
2013-02-11 23:05:00,41.6,40.3,29.63,West,269,0.0,0.0,95,0.00,,,0.19,WeatherCatV1.02B3,2013-02-12 04:05:00,
2013-02-11 23:10:00,41.4,40.1,29.64,WSW,243,0.0,0.0,95,0.00,,,0.19,WeatherCatV1.02B3,2013-02-12 04:10:00,
2013-02-11 23:15:00,41.4,40.1,29.64,WSW,257,0.0,0.0,95,0.00,,,0.19,WeatherCatV1.02B3,2013-02-12 04:15:00,
2013-02-11 23:20:00,41.4,40.1,29.64,WSW,252,0.0,0.0,95,0.00,,,0.19,WeatherCatV1.02B3,2013-02-12 04:20:00,
2013-02-11 23:25:00,41.3,40.0,29.64,WNW,287,0.0,0.0,95,0.00,,,0.19,WeatherCatV1.02B3,2013-02-12 04:25:00,
2013-02-11 23:30:00,41.1,39.8,29.64,West,259,0.0,0.0,95,0.00,,,0.19,WeatherCatV1.02B3,2013-02-12 04:30:00,
2013-02-11 23:35:00,40.9,39.6,29.64,SW,216,0.0,0.0,95,0.00,,,0.19,WeatherCatV1.02B3,2013-02-12 04:35:00,
2013-02-11 23:40:00,40.8,39.5,29.64,SW,232,0.0,0.0,95,0.00,,,0.19,WeatherCatV1.02B3,2013-02-12 04:40:00,
2013-02-11 23:45:00,40.8,39.5,29.65,West,270,0.0,0.0,95,0.00,,,0.19,WeatherCatV1.02B3,2013-02-12 04:45:00,
2013-02-11 23:50:00,40.8,39.5,29.65,West,267,0.0,0.0,95,0.00,,,0.19,WeatherCatV1.02B3,2013-02-12 04:50:00,
2013-02-11 23:55:00,40.9,39.3,29.65,WSW,254,0.0,0.0,94,0.00,,,0.19,WeatherCatV1.02B3,2013-02-12 04:55:00,